createdAt,value
2022-08-15T00:00:35.089Z,17.13
2022-08-15T00:03:09.766Z,12.47
2022-08-15T00:05:41.427Z,12.07
2022-08-15T00:08:49.574Z,13.57
2022-08-15T00:11:20.464Z,12.97
2022-08-15T00:13:59.741Z,14.47
2022-08-15T00:16:34.499Z,13.80
2022-08-15T00:19:07.771Z,13.10
2022-08-15T00:21:42.405Z,14.70
2022-08-15T00:24:20.092Z,13.57
2022-08-15T00:26:55.160Z,14.30
2022-08-15T00:29:37.668Z,14.27
2022-08-15T00:32:49.823Z,13.77
2022-08-15T00:35:02.906Z,14.43
2022-08-15T00:38:11.720Z,13.80
2022-08-15T00:40:31.717Z,14.80
2022-08-15T00:42:59.910Z,13.97
2022-08-15T00:45:33.106Z,15.07
2022-08-15T00:48:20.248Z,14.80
2022-08-15T00:50:48.070Z,18.23
2022-08-15T00:53:16.542Z,14.67
2022-08-15T00:55:48.739Z,15.90
2022-08-15T00:58:33.880Z,13.27
2022-08-15T01:01:05.508Z,15.80
2022-08-15T01:03:53.247Z,14.27
2022-08-15T01:06:28.337Z,15.83
2022-08-15T01:09:11.758Z,13.80
2022-08-15T01:12:21.036Z,15.67
2022-08-15T01:14:59.241Z,16.07
2022-08-15T01:17:30.201Z,14.57
2022-08-15T01:20:25.072Z,13.47
2022-08-15T01:23:39.455Z,14.20
2022-08-15T01:26:42.014Z,13.80
2022-08-15T01:29:06.281Z,15.57
2022-08-15T01:31:47.882Z,13.40
2022-08-15T01:34:18.837Z,15.17
2022-08-15T01:36:49.874Z,15.37
2022-08-15T01:39:57.096Z,14.00
2022-08-15T01:42:39.573Z,15.17
2022-08-15T01:45:17.091Z,14.30
2022-08-15T01:48:20.749Z,15.03
2022-08-15T01:50:54.885Z,16.23
2022-08-15T01:53:54.608Z,15.27
2022-08-15T01:56:46.201Z,16.63
2022-08-15T01:59:23.511Z,18.70
2022-08-15T02:01:57.571Z,18.77
2022-08-15T02:04:36.066Z,17.53
2022-08-15T02:07:16.826Z,18.40
2022-08-15T02:09:50.927Z,17.77
2022-08-15T02:13:03.306Z,17.13
2022-08-15T02:15:21.267Z,17.60
2022-08-15T02:17:49.744Z,18.40
2022-08-15T02:20:23.645Z,20.50
2022-08-15T02:22:54.732Z,18.03
2022-08-15T02:25:23.520Z,19.53
2022-08-15T02:27:52.582Z,17.20
2022-08-15T02:30:30.695Z,18.97
2022-08-15T02:33:01.576Z,18.10
2022-08-15T02:35:29.374Z,21.93
2022-08-15T02:38:00.217Z,19.20
2022-08-15T02:40:47.306Z,22.37
2022-08-15T02:43:19.854Z,19.87
2022-08-15T02:45:56.370Z,21.93
2022-08-15T02:48:40.615Z,18.93
2022-08-15T02:51:14.391Z,18.27
2022-08-15T02:53:48.230Z,20.67
2022-08-15T02:56:18.781Z,22.93
2022-08-15T02:58:48.221Z,19.67
2022-08-15T03:01:16.790Z,22.63
2022-08-15T03:03:48.782Z,17.57
2022-08-15T03:06:32.048Z,18.20
2022-08-15T03:09:05.736Z,18.57
2022-08-15T03:11:39.875Z,19.13
2022-08-15T03:14:34.178Z,17.40
2022-08-15T03:17:06.388Z,17.77
2022-08-15T03:19:39.199Z,17.50
2022-08-15T03:22:09.712Z,18.43
2022-08-15T03:24:37.650Z,20.67
2022-08-15T03:27:05.343Z,23.10
2022-08-15T03:29:34.249Z,20.00
2022-08-15T03:32:14.250Z,20.70
2022-08-15T03:34:58.479Z,19.97
2022-08-15T03:37:26.366Z,20.80
2022-08-15T03:39:55.020Z,20.80
2022-08-15T03:42:22.368Z,20.07
2022-08-15T03:44:50.753Z,21.23
2022-08-15T03:47:18.342Z,18.43
2022-08-15T03:50:28.202Z,18.00
2022-08-15T03:52:34.126Z,19.53
2022-08-15T03:55:15.560Z,23.13
2022-08-15T03:58:02.773Z,17.77
2022-08-15T04:00:36.786Z,18.23
2022-08-15T04:03:12.738Z,20.93
2022-08-15T04:05:42.981Z,18.80
2022-08-15T04:08:44.665Z,21.70
2022-08-15T04:11:07.337Z,18.53
2022-08-15T04:13:42.107Z,20.07
2022-08-15T04:17:03.722Z,19.00
2022-08-15T04:19:01.471Z,20.20
2022-08-15T04:21:28.756Z,20.23
2022-08-15T04:23:56.001Z,21.00
2022-08-15T04:26:26.748Z,20.03
2022-08-15T04:28:57.719Z,19.97
2022-08-15T04:31:33.115Z,21.33
2022-08-15T04:34:48.630Z,19.53
2022-08-15T04:36:50.653Z,20.77
2022-08-15T04:39:18.153Z,21.27
2022-08-15T04:41:50.084Z,19.93
2022-08-15T04:44:19.205Z,20.97
2022-08-15T04:46:47.161Z,19.90
2022-08-15T04:49:16.741Z,20.90
2022-08-15T04:51:45.829Z,18.83
2022-08-15T04:54:15.346Z,21.90
2022-08-15T04:56:48.225Z,21.37
2022-08-15T04:59:34.356Z,20.57
2022-08-15T05:02:53.573Z,21.70
2022-08-15T05:05:02.145Z,19.33
2022-08-15T05:07:30.330Z,19.83
2022-08-15T05:10:03.791Z,21.37
2022-08-15T05:12:42.050Z,22.07
2022-08-15T05:15:12.162Z,21.37
2022-08-15T05:17:55.205Z,21.23
2022-08-15T05:20:24.160Z,21.10
2022-08-15T05:23:03.268Z,24.03
2022-08-15T05:25:33.781Z,22.90
2022-08-15T05:28:29.737Z,22.63
2022-08-15T05:30:57.910Z,22.63
2022-08-15T05:33:57.054Z,24.50
2022-08-15T05:36:27.438Z,24.20
2022-08-15T05:39:19.230Z,22.00
2022-08-15T05:42:12.715Z,22.87
2022-08-15T05:45:29.122Z,23.47
2022-08-15T05:48:21.620Z,22.67
2022-08-15T05:51:21.501Z,23.57
2022-08-15T05:54:30.297Z,22.13
2022-08-15T05:57:13.966Z,21.17
2022-08-15T05:59:52.286Z,21.53
2022-08-15T06:02:51.072Z,21.23
2022-08-15T06:05:53.706Z,21.50
2022-08-15T06:08:49.973Z,20.00
2022-08-15T06:11:27.741Z,20.77
2022-08-15T06:14:18.051Z,20.80
2022-08-15T06:16:56.400Z,18.53
2022-08-15T06:19:34.474Z,19.13
2022-08-15T06:22:43.409Z,19.10
2022-08-15T06:25:23.087Z,21.37
2022-08-15T06:28:53.561Z,19.17
2022-08-15T06:31:39.539Z,18.57
2022-08-15T06:34:54.480Z,17.73
2022-08-15T06:38:01.223Z,18.20
2022-08-15T06:40:46.122Z,17.60
2022-08-15T06:43:15.100Z,18.60
2022-08-15T06:45:49.356Z,18.57
2022-08-15T06:48:55.577Z,17.40
2022-08-15T06:51:12.236Z,18.57
2022-08-15T06:53:57.033Z,16.50
2022-08-15T06:57:03.467Z,18.20
2022-08-15T07:00:36.131Z,17.90
2022-08-15T07:03:19.741Z,17.13
2022-08-15T07:09:23.423Z,15.37
2022-08-15T07:12:15.116Z,15.77
2022-08-15T07:15:11.424Z,15.13
2022-08-15T07:17:55.155Z,14.30
2022-08-15T07:20:38.162Z,14.10
2022-08-15T07:23:37.174Z,13.93
2022-08-15T07:26:13.259Z,14.90
2022-08-15T07:28:45.395Z,13.67
2022-08-15T07:31:26.465Z,14.07
2022-08-15T07:33:57.947Z,13.27
2022-08-15T07:36:35.370Z,11.87
2022-08-15T07:39:36.166Z,13.80
2022-08-15T07:42:28.469Z,11.47
2022-08-15T07:45:41.062Z,13.53
2022-08-15T07:48:24.467Z,12.00
2022-08-15T07:51:19.107Z,12.87
2022-08-15T07:53:58.264Z,12.70
2022-08-15T07:56:45.380Z,10.60
2022-08-15T07:59:27.993Z,9.87
2022-08-15T08:02:37.794Z,7.20
2022-08-15T08:07:56.274Z,5.77
2022-08-15T08:10:51.896Z,6.50
2022-08-15T08:14:02.402Z,5.33
2022-08-15T08:16:59.394Z,5.80
2022-08-15T08:20:30.852Z,6.17
2022-08-15T08:23:14.536Z,6.30
2022-08-15T08:26:13.496Z,6.00
2022-08-15T08:29:13.959Z,5.97
2022-08-15T08:31:57.384Z,5.10
2022-08-15T08:34:50.001Z,6.07
2022-08-15T08:37:55.496Z,6.43
2022-08-15T08:41:30.406Z,5.77
2022-08-15T08:44:23.080Z,5.50
2022-08-15T08:47:19.642Z,5.27
2022-08-15T08:50:34.381Z,6.23
2022-08-15T08:53:30.796Z,5.50
2022-08-15T08:56:33.279Z,5.40
2022-08-15T08:59:25.621Z,5.80
2022-08-15T09:02:30.731Z,5.80
2022-08-15T09:05:09.445Z,5.87
2022-08-15T09:07:45.551Z,5.83
2022-08-15T09:10:29.767Z,6.50
2022-08-15T09:13:19.161Z,5.73
2022-08-15T09:15:53.809Z,7.67
2022-08-15T09:18:34.646Z,6.03
2022-08-15T09:21:16.373Z,6.00
2022-08-15T09:23:47.111Z,6.10
2022-08-15T09:26:38.795Z,6.00
2022-08-15T09:29:56.828Z,5.07
2022-08-15T09:32:32.493Z,4.80
2022-08-15T09:35:09.910Z,5.60
2022-08-15T09:37:56.548Z,4.57
2022-08-15T09:41:13.072Z,5.20
2022-08-15T09:44:36.521Z,6.07
2022-08-15T09:47:13.049Z,8.00
2022-08-15T09:49:47.064Z,5.23
2022-08-15T09:53:02.609Z,4.70
2022-08-15T09:55:46.343Z,5.40
2022-08-15T09:58:32.615Z,5.40
2022-08-15T10:01:17.396Z,4.40
2022-08-15T10:03:53.270Z,4.90
2022-08-15T10:07:05.525Z,4.60
2022-08-15T10:09:43.753Z,5.40
2022-08-15T10:12:16.431Z,5.20
2022-08-15T10:14:53.759Z,5.47
2022-08-15T10:17:57.514Z,5.40
2022-08-15T10:20:28.437Z,4.93
2022-08-15T10:23:08.951Z,5.63
2022-08-15T10:25:41.106Z,4.80
2022-08-15T10:28:36.526Z,5.07
2022-08-15T10:31:09.003Z,5.60
2022-08-15T10:33:58.925Z,5.20
2022-08-15T10:36:42.041Z,4.80
2022-08-15T10:39:31.996Z,5.63
2022-08-15T10:42:27.305Z,5.53
2022-08-15T10:45:24.885Z,4.80
2022-08-15T10:48:44.100Z,4.73
2022-08-15T10:51:42.430Z,5.00
2022-08-15T10:54:51.365Z,5.07
2022-08-15T10:57:25.985Z,4.50
2022-08-15T11:00:01.465Z,4.07
2022-08-15T11:03:10.226Z,6.13
2022-08-15T11:05:44.901Z,4.20
2022-08-15T11:08:17.875Z,3.80
2022-08-15T11:10:45.311Z,4.63
2022-08-15T11:13:18.501Z,6.43
2022-08-15T11:15:57.655Z,4.93
2022-08-15T11:18:58.356Z,4.60
2022-08-15T11:21:43.003Z,4.90
2022-08-15T11:24:14.650Z,4.43
2022-08-15T11:26:53.456Z,4.53
2022-08-15T11:29:25.414Z,4.30
2022-08-15T11:32:00.441Z,4.43
2022-08-15T11:34:42.703Z,4.60
2022-08-15T11:37:40.452Z,4.70
2022-08-15T11:40:26.293Z,4.80
2022-08-15T11:42:58.637Z,4.67
2022-08-15T11:45:50.641Z,5.00
2022-08-15T11:48:35.563Z,4.93
2022-08-15T11:51:16.267Z,3.90
2022-08-15T11:54:12.603Z,3.97
2022-08-15T11:56:58.043Z,4.20
2022-08-15T11:59:34.485Z,3.90
2022-08-15T12:02:08.087Z,3.87
2022-08-15T12:05:40.952Z,3.87
2022-08-15T12:07:31.199Z,4.50
2022-08-15T12:10:30.504Z,5.43
2022-08-15T12:12:56.317Z,3.60
2022-08-15T12:15:32.231Z,4.00
2022-08-15T12:18:09.627Z,3.47
2022-08-15T12:21:01.990Z,3.90
2022-08-15T12:23:34.341Z,3.40
2022-08-15T12:26:23.912Z,4.07
2022-08-15T12:28:59.222Z,3.73
2022-08-15T12:31:43.225Z,4.03
2022-08-15T12:34:28.035Z,3.90
2022-08-15T12:37:06.516Z,3.50
2022-08-15T12:39:43.812Z,3.50
2022-08-15T12:42:49.576Z,4.37
2022-08-15T12:45:19.911Z,5.43
2022-08-15T12:48:06.926Z,3.50
2022-08-15T12:50:37.128Z,4.27
2022-08-15T12:53:08.686Z,4.10
2022-08-15T12:55:40.632Z,4.10
2022-08-15T12:58:12.255Z,4.20
2022-08-15T13:00:58.238Z,3.57
2022-08-15T13:04:00.048Z,10.17
2022-08-15T13:06:35.615Z,4.90
2022-08-15T13:09:15.075Z,3.70
2022-08-15T13:11:53.542Z,3.27
2022-08-15T13:14:24.691Z,4.80
2022-08-15T13:17:10.302Z,4.00
2022-08-15T13:20:06.046Z,3.40
2022-08-15T13:22:52.816Z,3.83
2022-08-15T13:25:22.970Z,3.97
2022-08-15T13:27:51.514Z,3.60
2022-08-15T13:30:22.136Z,3.60
2022-08-15T13:32:51.141Z,3.97
2022-08-15T13:35:21.288Z,3.17
2022-08-15T13:37:59.520Z,3.60
2022-08-15T13:40:32.648Z,3.50
2022-08-15T13:43:12.376Z,3.87
2022-08-15T13:45:57.133Z,3.33
2022-08-15T13:48:38.591Z,2.73
2022-08-15T13:52:23.894Z,3.40
2022-08-15T13:54:31.350Z,3.60
2022-08-15T13:56:55.578Z,3.20
2022-08-15T13:59:24.164Z,3.50
2022-08-15T14:01:53.013Z,3.03
2022-08-15T14:04:36.425Z,3.90
2022-08-15T14:07:07.214Z,2.80
2022-08-15T14:10:04.563Z,4.03
2022-08-15T14:12:27.334Z,3.20
2022-08-15T14:15:03.960Z,3.30
2022-08-15T14:17:37.167Z,3.70
2022-08-15T14:20:26.265Z,3.40
2022-08-15T14:22:57.893Z,3.47
2022-08-15T14:27:08.667Z,3.20
2022-08-15T14:28:19.363Z,3.50
2022-08-15T14:31:19.700Z,3.40
2022-08-15T14:36:36.029Z,2.80
2022-08-15T14:39:05.610Z,3.00
2022-08-15T14:41:41.617Z,3.43
2022-08-15T14:44:46.979Z,3.17
2022-08-15T14:47:02.195Z,2.70
2022-08-15T14:50:54.522Z,2.80
2022-08-15T14:52:24.500Z,2.97
2022-08-15T14:54:53.313Z,2.80
2022-08-15T14:57:25.967Z,2.87
2022-08-15T14:59:59.107Z,3.47
2022-08-15T15:02:45.549Z,2.80
2022-08-15T15:05:15.734Z,2.83
2022-08-15T15:07:57.461Z,3.00
2022-08-15T15:10:32.374Z,4.30
2022-08-15T15:13:15.468Z,3.40
2022-08-15T15:16:07.114Z,3.20
2022-08-15T15:18:46.594Z,3.17
2022-08-15T15:21:21.916Z,2.53
2022-08-15T15:23:51.767Z,3.73
2022-08-15T15:26:36.390Z,3.37
2022-08-15T15:29:07.038Z,3.00
2022-08-15T15:31:41.252Z,2.97
2022-08-15T15:34:15.057Z,2.93
2022-08-15T15:36:48.622Z,3.53
2022-08-15T15:39:45.570Z,3.33
2022-08-15T15:42:16.448Z,3.30
2022-08-15T15:44:50.079Z,2.70
2022-08-15T15:47:24.942Z,3.20
2022-08-15T15:49:55.569Z,2.90
2022-08-15T15:52:32.386Z,2.67
2022-08-15T15:55:04.702Z,3.13
2022-08-15T15:58:03.534Z,3.00
2022-08-15T16:00:27.989Z,2.70
2022-08-15T16:03:02.061Z,3.03
2022-08-15T16:06:04.371Z,2.40
2022-08-15T16:08:32.355Z,3.10
2022-08-15T16:11:42.218Z,2.70
2022-08-15T16:14:28.582Z,2.93
2022-08-15T16:17:15.734Z,3.10
2022-08-15T16:19:51.031Z,3.20
2022-08-15T16:22:33.602Z,3.37
2022-08-15T16:25:15.586Z,3.00
2022-08-15T16:27:54.028Z,2.60
2022-08-15T16:30:33.071Z,3.20
2022-08-15T16:33:10.281Z,3.17
2022-08-15T16:36:23.988Z,3.50
2022-08-15T16:39:28.065Z,3.27
2022-08-15T16:42:11.586Z,4.10
2022-08-15T16:44:47.082Z,6.30
2022-08-15T16:47:29.162Z,3.33
2022-08-15T16:50:29.032Z,7.27
2022-08-15T16:53:13.597Z,3.37
2022-08-15T16:55:51.517Z,2.70
2022-08-15T16:58:46.478Z,3.03
2022-08-15T17:03:07.855Z,2.90
2022-08-15T17:06:26.901Z,2.40
2022-08-15T17:09:22.316Z,2.70
2022-08-15T17:12:54.002Z,2.30
2022-08-15T17:15:38.473Z,3.60
2022-08-15T17:18:38.658Z,3.30
2022-08-15T17:21:42.012Z,2.70
2022-08-15T17:25:00.404Z,2.57
2022-08-15T17:28:34.509Z,2.50
2022-08-15T17:31:01.807Z,4.47
2022-08-15T17:33:45.343Z,4.70
2022-08-15T17:36:17.975Z,3.23
2022-08-15T17:38:57.789Z,4.20
2022-08-15T17:41:31.934Z,3.27
2022-08-15T17:44:15.996Z,8.90
2022-08-15T17:47:19.834Z,7.00
2022-08-15T17:50:48.467Z,38.00
2022-08-15T17:53:20.787Z,8.50
2022-08-15T17:55:58.056Z,14.67
2022-08-15T17:58:34.490Z,16.83
2022-08-15T18:01:01.653Z,7.83
2022-08-15T18:03:30.162Z,4.73
2022-08-15T18:06:04.576Z,3.10
2022-08-15T18:08:53.974Z,3.80
2022-08-15T18:11:36.536Z,3.70
2022-08-15T18:14:37.975Z,3.67
2022-08-15T18:17:08.943Z,3.50
2022-08-15T18:19:37.365Z,4.23
2022-08-15T18:22:22.804Z,4.20
2022-08-15T18:25:00.650Z,2.97
2022-08-15T18:27:53.938Z,3.03
2022-08-15T18:30:32.393Z,3.23
2022-08-15T18:34:03.433Z,3.13
2022-08-15T18:36:52.311Z,4.93
2022-08-15T18:40:00.546Z,3.53
2022-08-15T18:42:36.684Z,3.60
2022-08-15T18:45:06.377Z,6.13
2022-08-15T18:47:43.089Z,5.53
2022-08-15T18:50:44.776Z,2.93
2022-08-15T18:53:23.514Z,3.80
2022-08-15T18:55:58.690Z,9.57
2022-08-15T18:58:40.000Z,2.93
2022-08-15T19:01:27.847Z,2.80
2022-08-15T19:03:55.292Z,3.23
2022-08-15T19:06:50.805Z,2.90
2022-08-15T19:09:23.395Z,3.80
2022-08-15T19:12:00.400Z,3.50
2022-08-15T19:14:34.862Z,3.20
2022-08-15T19:17:30.686Z,3.93
2022-08-15T19:20:27.488Z,3.60
2022-08-15T19:24:26.888Z,3.47
2022-08-15T19:25:56.590Z,3.20
2022-08-15T19:28:44.656Z,3.20
2022-08-15T19:31:39.375Z,4.00
2022-08-15T19:34:43.814Z,2.97
2022-08-15T19:37:36.049Z,2.90
2022-08-15T19:40:40.142Z,3.47
2022-08-15T19:43:41.117Z,2.70
2022-08-15T19:46:50.212Z,3.00
2022-08-15T19:50:20.406Z,2.80
2022-08-15T19:52:59.757Z,3.47
2022-08-15T19:56:17.824Z,2.60
2022-08-15T19:59:21.697Z,2.60
2022-08-15T20:02:01.855Z,3.03
2022-08-15T20:04:49.902Z,2.50
2022-08-15T20:07:24.135Z,3.50
2022-08-15T20:10:43.394Z,3.40
2022-08-15T20:14:02.269Z,2.67
2022-08-15T20:16:55.014Z,3.33
2022-08-15T20:19:47.261Z,4.10
2022-08-15T20:22:35.416Z,3.00
2022-08-15T20:25:28.498Z,4.00
2022-08-15T20:27:59.907Z,3.87
2022-08-15T20:30:38.943Z,3.20
2022-08-15T20:33:22.394Z,3.20
2022-08-15T20:35:58.701Z,3.40
2022-08-15T20:38:33.351Z,3.60
2022-08-15T20:41:04.900Z,2.87
2022-08-15T20:43:51.132Z,2.90
2022-08-15T20:46:45.052Z,3.50
2022-08-15T20:49:24.530Z,5.93
2022-08-15T20:52:55.859Z,3.20
2022-08-15T20:55:06.543Z,4.63
2022-08-15T20:57:40.541Z,4.90
2022-08-15T21:01:11.371Z,3.70
2022-08-15T21:04:01.259Z,3.80
2022-08-15T21:06:19.660Z,4.23
2022-08-15T21:09:00.029Z,4.53
2022-08-15T21:11:50.941Z,3.57
2022-08-15T21:15:09.547Z,5.17
2022-08-15T21:18:03.794Z,4.00
2022-08-15T21:21:16.410Z,4.30
2022-08-15T21:24:01.500Z,3.70
2022-08-15T21:26:39.956Z,4.17
2022-08-15T21:29:10.603Z,4.00
2022-08-15T21:32:12.480Z,4.33
2022-08-15T21:35:42.523Z,4.37
2022-08-15T21:38:49.007Z,4.20
2022-08-15T21:41:38.594Z,3.67
2022-08-15T21:44:32.216Z,3.80
2022-08-15T21:46:59.174Z,4.33
2022-08-15T21:49:36.856Z,5.07
2022-08-15T21:52:34.729Z,4.30
2022-08-15T21:55:14.175Z,4.53
2022-08-15T21:58:18.629Z,4.60
2022-08-15T22:00:48.134Z,3.70
2022-08-15T22:03:35.724Z,4.40
2022-08-15T22:06:23.117Z,4.53
2022-08-15T22:08:56.223Z,3.83
2022-08-15T22:11:38.082Z,4.33
2022-08-15T22:14:06.366Z,4.77
2022-08-15T22:16:39.641Z,3.90
2022-08-15T22:19:14.169Z,3.70
2022-08-15T22:21:46.521Z,8.27
2022-08-15T22:24:18.123Z,4.40
2022-08-15T22:26:51.851Z,4.67
2022-08-15T22:29:34.528Z,4.97
2022-08-15T22:32:31.086Z,3.70
2022-08-15T22:35:01.957Z,4.90
2022-08-15T22:37:34.167Z,4.77
2022-08-15T22:40:09.860Z,4.30
2022-08-15T22:42:43.162Z,4.20
2022-08-15T22:45:36.307Z,4.97
2022-08-15T22:48:19.284Z,4.33
2022-08-15T22:51:20.019Z,3.60
2022-08-15T22:53:51.344Z,4.03
2022-08-15T22:56:45.379Z,3.80
2022-08-15T22:59:14.488Z,3.97
2022-08-15T23:01:49.998Z,4.00
2022-08-15T23:04:43.774Z,3.90
2022-08-15T23:07:30.976Z,10.20
2022-08-15T23:10:29.929Z,3.63
2022-08-15T23:13:06.378Z,2.87
2022-08-15T23:16:00.218Z,3.10
2022-08-15T23:19:26.730Z,3.17
2022-08-15T23:22:02.089Z,3.50
2022-08-15T23:24:37.635Z,3.93
2022-08-15T23:27:09.743Z,5.20
2022-08-15T23:29:41.199Z,3.80
2022-08-15T23:32:30.527Z,2.60
2022-08-15T23:35:10.910Z,4.63
2022-08-15T23:37:46.112Z,3.10
2022-08-15T23:40:35.088Z,3.10
2022-08-15T23:43:16.273Z,3.00
2022-08-15T23:45:45.437Z,5.37
2022-08-15T23:48:29.021Z,5.23
2022-08-15T23:51:03.608Z,4.40
2022-08-15T23:53:35.893Z,3.73
2022-08-15T23:56:35.307Z,5.30
2022-08-15T23:58:56.702Z,3.40
